sensor_id;sensor_type;location;lat;lon;timestamp;pressure;altitude;pressure_sealevel;temperature;humidity
65280;BME280;51878;55.748;48.742;2023-06-01T00:04:36;98262.25;;;13.69;100.00
65280;BME280;51878;55.748;48.742;2023-06-01T00:09:55;98214.66;;;13.36;100.00
65280;BME280;51878;55.748;48.742;2023-06-01T00:15:12;98222.81;;;13.36;100.00
65280;BME280;51878;55.748;48.742;2023-06-01T00:20:14;98277.53;;;13.70;100.00
65280;BME280;51878;55.748;48.742;2023-06-01T00:25:23;98254.19;;;13.51;100.00
65280;BME280;51878;55.748;48.742;2023-06-01T00:30:25;98283.81;;;13.59;100.00
65280;BME280;51878;55.748;48.742;2023-06-01T00:35:30;98201.66;;;13.08;100.00
65280;BME280;51878;55.748;48.742;2023-06-01T00:40:34;98289.97;;;13.66;100.00
65280;BME280;51878;55.748;48.742;2023-06-01T00:45:36;98306.19;;;13.73;100.00
65280;BME280;51878;55.748;48.742;2023-06-01T00:50:44;98288.66;;;13.69;100.00
65280;BME280;51878;55.748;48.742;2023-06-01T00:55:46;98240.09;;;13.42;100.00
65280;BME280;51878;55.748;48.742;2023-06-01T01:00:57;98307.50;;;13.82;100.00
65280;BME280;51878;55.748;48.742;2023-06-01T01:11:55;98303.81;;;13.64;100.00
65280;BME280;51878;55.748;48.742;2023-06-01T01:17:13;98308.41;;;13.52;100.00
65280;BME280;51878;55.748;48.742;2023-06-01T01:22:46;98281.97;;;13.29;100.00
65280;BME280;51878;55.748;48.742;2023-06-01T01:33:21;98266.00;;;13.33;100.00
65280;BME280;51878;55.748;48.742;2023-06-01T01:38:24;98293.00;;;13.46;100.00
65280;BME280;51878;55.748;48.742;2023-06-01T01:43:31;98331.53;;;13.61;100.00
65280;BME280;51878;55.748;48.742;2023-06-01T01:53:59;98332.34;;;13.50;100.00
65280;BME280;51878;55.748;48.742;2023-06-01T01:59:08;98369.06;;;13.71;100.00
65280;BME280;51878;55.748;48.742;2023-06-01T02:04:11;98295.84;;;13.39;100.00
65280;BME280;51878;55.748;48.742;2023-06-01T02:09:13;98362.94;;;13.76;100.00
65280;BME280;51878;55.748;48.742;2023-06-01T02:14:18;98356.03;;;13.73;100.00
65280;BME280;51878;55.748;48.742;2023-06-01T02:19:30;98361.59;;;13.67;100.00
65280;BME280;51878;55.748;48.742;2023-06-01T02:24:32;98267.72;;;12.85;100.00
65280;BME280;51878;55.748;48.742;2023-06-01T02:29:36;98352.53;;;13.42;100.00
65280;BME280;51878;55.748;48.742;2023-06-01T02:34:49;98321.75;;;13.30;100.00
65280;BME280;51878;55.748;48.742;2023-06-01T02:39:51;98312.66;;;13.18;100.00
65280;BME280;51878;55.748;48.742;2023-06-01T02:45:03;98358.47;;;13.39;100.00
65280;BME280;51878;55.748;48.742;2023-06-01T02:50:15;98308.59;;;12.97;100.00
65280;BME280;51878;55.748;48.742;2023-06-01T02:55:17;98384.44;;;13.54;100.00
65280;BME280;51878;55.748;48.742;2023-06-01T03:00:22;98351.09;;;13.28;100.00
65280;BME280;51878;55.748;48.742;2023-06-01T03:05:33;98391.50;;;12.94;100.00
65280;BME280;51878;55.748;48.742;2023-06-01T03:10:37;98354.56;;;12.50;100.00
65280;BME280;51878;55.748;48.742;2023-06-01T03:15:39;98344.59;;;12.44;100.00
65280;BME280;51878;55.748;48.742;2023-06-01T03:20:42;98335.16;;;12.46;100.00
65280;BME280;51878;55.748;48.742;2023-06-01T03:25:44;98320.22;;;12.37;100.00
65280;BME280;51878;55.748;48.742;2023-06-01T03:30:47;98269.53;;;12.06;100.00
65280;BME280;51878;55.748;48.742;2023-06-01T03:35:49;98355.09;;;12.58;100.00
65280;BME280;51878;55.748;48.742;2023-06-01T03:40:51;98365.59;;;12.73;100.00
65280;BME280;51878;55.748;48.742;2023-06-01T03:45:53;98434.94;;;13.19;100.00
65280;BME280;51878;55.748;48.742;2023-06-01T03:50:56;98261.69;;;12.16;100.00
65280;BME280;51878;55.748;48.742;2023-06-01T03:55:58;98391.94;;;13.10;100.00
65280;BME280;51878;55.748;48.742;2023-06-01T04:01:00;98459.84;;;13.53;100.00
65280;BME280;51878;55.748;48.742;2023-06-01T04:06:05;98371.34;;;13.32;100.00
65280;BME280;51878;55.748;48.742;2023-06-01T04:11:17;98459.44;;;13.98;100.00
65280;BME280;51878;55.748;48.742;2023-06-01T04:16:20;98386.28;;;13.72;100.00
65280;BME280;51878;55.748;48.742;2023-06-01T04:21:23;98412.94;;;13.81;100.00
65280;BME280;51878;55.748;48.742;2023-06-01T04:26:25;98443.78;;;14.17;100.00
65280;BME280;51878;55.748;48.742;2023-06-01T04:31:29;98388.56;;;14.10;100.00
65280;BME280;51878;55.748;48.742;2023-06-01T04:36:35;98494.59;;;14.42;100.00
65280;BME280;51878;55.748;48.742;2023-06-01T04:41:41;98485.72;;;14.46;100.00
65280;BME280;51878;55.748;48.742;2023-06-01T04:46:43;98429.00;;;14.13;100.00
65280;BME280;51878;55.748;48.742;2023-06-01T04:51:46;98461.72;;;14.25;100.00
65280;BME280;51878;55.748;48.742;2023-06-01T04:56:50;98486.59;;;14.29;100.00
65280;BME280;51878;55.748;48.742;2023-06-01T05:01:53;98436.09;;;14.02;100.00
65280;BME280;51878;55.748;48.742;2023-06-01T05:06:55;98458.50;;;14.16;100.00
65280;BME280;51878;55.748;48.742;2023-06-01T05:11:57;98521.28;;;14.40;100.00
65280;BME280;51878;55.748;48.742;2023-06-01T05:17:00;98532.22;;;14.63;100.00
65280;BME280;51878;55.748;48.742;2023-06-01T05:22:02;98500.16;;;14.47;100.00
65280;BME280;51878;55.748;48.742;2023-06-01T05:27:05;98514.69;;;14.71;100.00
65280;BME280;51878;55.748;48.742;2023-06-01T05:32:08;98520.25;;;14.64;100.00
65280;BME280;51878;55.748;48.742;2023-06-01T05:37:10;98542.69;;;14.78;100.00
65280;BME280;51878;55.748;48.742;2023-06-01T05:42:13;98501.28;;;14.70;100.00
65280;BME280;51878;55.748;48.742;2023-06-01T05:47:15;98556.31;;;14.90;100.00
65280;BME280;51878;55.748;48.742;2023-06-01T05:52:17;98545.53;;;14.95;100.00
65280;BME280;51878;55.748;48.742;2023-06-01T05:57:20;98395.56;;;14.30;100.00
65280;BME280;51878;55.748;48.742;2023-06-01T06:02:22;98527.31;;;15.36;100.00
65280;BME280;51878;55.748;48.742;2023-06-01T06:07:25;98492.22;;;15.16;100.00
65280;BME280;51878;55.748;48.742;2023-06-01T06:12:27;98448.34;;;14.94;100.00
65280;BME280;51878;55.748;48.742;2023-06-01T06:17:30;98501.47;;;15.27;100.00
65280;BME280;51878;55.748;48.742;2023-06-01T06:22:32;98546.91;;;15.57;100.00
65280;BME280;51878;55.748;48.742;2023-06-01T06:27:34;98491.34;;;15.27;100.00
65280;BME280;51878;55.748;48.742;2023-06-01T06:32:36;98461.06;;;14.65;100.00
65280;BME280;51878;55.748;48.742;2023-06-01T06:37:42;98540.84;;;15.43;100.00
65280;BME280;51878;55.748;48.742;2023-06-01T06:42:47;98573.63;;;15.43;100.00
65280;BME280;51878;55.748;48.742;2023-06-01T06:47:51;98608.91;;;15.44;100.00
65280;BME280;51878;55.748;48.742;2023-06-01T06:52:53;98589.00;;;15.84;100.00
65280;BME280;51878;55.748;48.742;2023-06-01T06:57:55;98595.75;;;16.05;100.00
65280;BME280;51878;55.748;48.742;2023-06-01T07:02:58;98530.38;;;16.21;100.00
65280;BME280;51878;55.748;48.742;2023-06-01T07:08:01;98535.66;;;15.82;98.22
65280;BME280;51878;55.748;48.742;2023-06-01T07:13:03;98600.66;;;16.20;99.66
65280;BME280;51878;55.748;48.742;2023-06-01T07:18:06;98580.88;;;16.30;96.78
65280;BME280;51878;55.748;48.742;2023-06-01T07:23:08;98555.94;;;16.43;99.03
65280;BME280;51878;55.748;48.742;2023-06-01T07:28:14;98531.56;;;16.25;96.66
65280;BME280;51878;55.748;48.742;2023-06-01T07:33:17;98603.28;;;16.89;93.64
65280;BME280;51878;55.748;48.742;2023-06-01T07:38:20;98620.19;;;16.86;93.91
65280;BME280;51878;55.748;48.742;2023-06-01T07:43:24;98642.63;;;17.00;96.97
65280;BME280;51878;55.748;48.742;2023-06-01T07:48:27;98523.59;;;16.40;93.18
65280;BME280;51878;55.748;48.742;2023-06-01T07:53:31;98648.94;;;17.18;92.23
65280;BME280;51878;55.748;48.742;2023-06-01T07:58:33;98624.03;;;17.02;91.41
65280;BME280;51878;55.748;48.742;2023-06-01T08:03:42;98613.50;;;17.11;90.64
65280;BME280;51878;55.748;48.742;2023-06-01T08:08:45;98602.31;;;17.34;87.03
65280;BME280;51878;55.748;48.742;2023-06-01T08:13:48;98622.19;;;17.25;88.86
65280;BME280;51878;55.748;48.742;2023-06-01T08:18:51;98655.13;;;17.47;84.75
65280;BME280;51878;55.748;48.742;2023-06-01T08:23:53;98665.00;;;17.65;86.69
65280;BME280;51878;55.748;48.742;2023-06-01T08:28:59;98674.78;;;17.61;85.05
65280;BME280;51878;55.748;48.742;2023-06-01T08:34:01;98649.75;;;17.18;88.48
65280;BME280;51878;55.748;48.742;2023-06-01T08:39:23;98648.91;;;17.51;80.62
65280;BME280;51878;55.748;48.742;2023-06-01T08:44:27;98669.50;;;18.59;74.63
65280;BME280;51878;55.748;48.742;2023-06-01T08:49:32;98681.69;;;18.46;67.45
65280;BME280;51878;55.748;48.742;2023-06-01T08:54:34;98708.75;;;18.59;74.28
65280;BME280;51878;55.748;48.742;2023-06-01T08:59:37;98647.50;;;18.32;74.98
65280;BME280;51878;55.748;48.742;2023-06-01T09:04:41;98706.72;;;18.72;71.72
65280;BME280;51878;55.748;48.742;2023-06-01T09:09:46;98719.56;;;18.93;72.11
65280;BME280;51878;55.748;48.742;2023-06-01T09:15:07;98718.69;;;19.15;69.73
65280;BME280;51878;55.748;48.742;2023-06-01T09:20:35;98661.56;;;18.63;70.94
65280;BME280;51878;55.748;48.742;2023-06-01T09:25:36;98624.31;;;18.99;64.40
65280;BME280;51878;55.748;48.742;2023-06-01T09:30:43;98712.09;;;19.48;61.42
65280;BME280;51878;55.748;48.742;2023-06-01T09:35:48;98729.84;;;19.35;63.05
65280;BME280;51878;55.748;48.742;2023-06-01T09:41:02;98627.41;;;19.08;62.97
65280;BME280;51878;55.748;48.742;2023-06-01T09:46:08;98738.88;;;19.95;60.60
65280;BME280;51878;55.748;48.742;2023-06-01T09:51:36;98757.81;;;19.87;59.64
65280;BME280;51878;55.748;48.742;2023-06-01T09:56:45;98730.84;;;19.89;59.57
65280;BME280;51878;55.748;48.742;2023-06-01T10:01:53;98706.91;;;20.52;55.47
65280;BME280;51878;55.748;48.742;2023-06-01T10:06:57;98723.25;;;20.74;53.38
65280;BME280;51878;55.748;48.742;2023-06-01T10:12:00;98763.78;;;20.21;53.88
65280;BME280;51878;55.748;48.742;2023-06-01T10:17:03;98713.13;;;20.95;56.04
65280;BME280;51878;55.748;48.742;2023-06-01T10:22:06;98728.59;;;21.99;54.55
65280;BME280;51878;55.748;48.742;2023-06-01T10:37:39;98683.81;;;22.12;49.43
65280;BME280;51878;55.748;48.742;2023-06-01T10:42:42;98796.78;;;22.03;48.67
65280;BME280;51878;55.748;48.742;2023-06-01T10:47:44;98747.41;;;20.52;54.22
65280;BME280;51878;55.748;48.742;2023-06-01T10:52:47;98796.25;;;20.61;57.44
65280;BME280;51878;55.748;48.742;2023-06-01T10:57:50;98797.06;;;20.19;60.61
65280;BME280;51878;55.748;48.742;2023-06-01T11:02:57;98795.28;;;20.46;59.62
65280;BME280;51878;55.748;48.742;2023-06-01T11:08:00;98808.97;;;20.78;54.44
65280;BME280;51878;55.748;48.742;2023-06-01T11:13:13;98796.78;;;20.58;57.28
65280;BME280;51878;55.748;48.742;2023-06-01T11:23:45;98745.16;;;20.38;56.60
65280;BME280;51878;55.748;48.742;2023-06-01T11:28:48;98792.38;;;21.41;56.87
65280;BME280;51878;55.748;48.742;2023-06-01T11:33:52;98796.09;;;23.23;49.55
65280;BME280;51878;55.748;48.742;2023-06-01T11:38:55;98791.03;;;24.09;45.37
65280;BME280;51878;55.748;48.742;2023-06-01T11:44:04;98773.44;;;23.21;46.41
65280;BME280;51878;55.748;48.742;2023-06-01T11:49:09;98680.09;;;23.37;46.19
65280;BME280;51878;55.748;48.742;2023-06-01T11:54:15;98703.09;;;24.20;42.59
65280;BME280;51878;55.748;48.742;2023-06-01T11:59:18;98669.69;;;23.23;43.37
65280;BME280;51878;55.748;48.742;2023-06-01T12:04:24;98783.28;;;23.77;46.89
65280;BME280;51878;55.748;48.742;2023-06-01T12:09:29;98646.31;;;23.40;43.85
65280;BME280;51878;55.748;48.742;2023-06-01T12:14:33;98798.94;;;23.91;43.14
65280;BME280;51878;55.748;48.742;2023-06-01T12:19:52;98773.31;;;24.58;41.00
65280;BME280;51878;55.748;48.742;2023-06-01T12:25:06;98780.25;;;25.04;40.95
65280;BME280;51878;55.748;48.742;2023-06-01T12:30:23;98762.03;;;25.16;39.47
65280;BME280;51878;55.748;48.742;2023-06-01T12:35:27;98754.28;;;24.94;39.10
65280;BME280;51878;55.748;48.742;2023-06-01T12:40:30;98787.25;;;27.57;36.42
65280;BME280;51878;55.748;48.742;2023-06-01T12:45:36;98781.63;;;27.93;33.22
65280;BME280;51878;55.748;48.742;2023-06-01T12:50:44;98781.44;;;27.90;33.99
65280;BME280;51878;55.748;48.742;2023-06-01T12:55:56;98782.75;;;28.15;33.05
65280;BME280;51878;55.748;48.742;2023-06-01T13:00:59;98782.84;;;28.32;33.44
65280;BME280;51878;55.748;48.742;2023-06-01T13:06:02;98655.53;;;27.88;32.91
65280;BME280;51878;55.748;48.742;2023-06-01T13:11:05;98728.88;;;28.37;32.80
65280;BME280;51878;55.748;48.742;2023-06-01T13:16:08;98786.28;;;28.69;33.12
65280;BME280;51878;55.748;48.742;2023-06-01T13:21:14;98727.94;;;29.42;31.86
65280;BME280;51878;55.748;48.742;2023-06-01T13:26:19;98795.09;;;30.33;29.91
65280;BME280;51878;55.748;48.742;2023-06-01T13:31:24;98779.59;;;30.36;29.80
65280;BME280;51878;55.748;48.742;2023-06-01T13:36:28;98796.31;;;29.89;30.43
65280;BME280;51878;55.748;48.742;2023-06-01T13:41:44;98804.56;;;30.58;29.60
65280;BME280;51878;55.748;48.742;2023-06-01T13:46:52;98822.81;;;30.56;29.47
65280;BME280;51878;55.748;48.742;2023-06-01T13:51:59;98801.56;;;29.55;30.35
65280;BME280;51878;55.748;48.742;2023-06-01T13:57:02;98794.03;;;29.82;30.65
65280;BME280;51878;55.748;48.742;2023-06-01T14:02:07;98768.53;;;30.86;29.45
65280;BME280;51878;55.748;48.742;2023-06-01T14:07:10;98657.47;;;30.69;28.10
65280;BME280;51878;55.748;48.742;2023-06-01T14:12:13;98771.03;;;31.09;28.63
65280;BME280;51878;55.748;48.742;2023-06-01T14:17:17;98761.53;;;31.22;27.84
65280;BME280;51878;55.748;48.742;2023-06-01T14:22:19;98808.72;;;30.82;28.47
65280;BME280;51878;55.748;48.742;2023-06-01T14:27:22;98804.88;;;29.83;29.30
65280;BME280;51878;55.748;48.742;2023-06-01T14:32:24;98797.19;;;28.17;32.41
65280;BME280;51878;55.748;48.742;2023-06-01T14:37:26;98758.84;;;26.13;34.94
65280;BME280;51878;55.748;48.742;2023-06-01T14:42:38;98778.44;;;25.13;38.07
65280;BME280;51878;55.748;48.742;2023-06-01T14:47:42;98719.63;;;24.73;37.55
65280;BME280;51878;55.748;48.742;2023-06-01T14:52:44;98746.50;;;24.00;40.17
65280;BME280;51878;55.748;48.742;2023-06-01T14:57:47;98780.22;;;24.07;40.12
65280;BME280;51878;55.748;48.742;2023-06-01T15:02:49;98799.53;;;23.88;41.22
65280;BME280;51878;55.748;48.742;2023-06-01T15:07:52;98799.03;;;22.87;43.35
65280;BME280;51878;55.748;48.742;2023-06-01T15:12:54;98770.09;;;22.64;43.56
65280;BME280;51878;55.748;48.742;2023-06-01T15:17:56;98728.03;;;21.97;44.57
65280;BME280;51878;55.748;48.742;2023-06-01T15:22:59;98711.25;;;21.67;44.62
65280;BME280;51878;55.748;48.742;2023-06-01T15:28:01;98800.34;;;22.09;45.79
65280;BME280;51878;55.748;48.742;2023-06-01T15:33:03;98760.31;;;21.30;47.18
65280;BME280;51878;55.748;48.742;2023-06-01T15:38:09;98750.06;;;20.99;47.87
65280;BME280;51878;55.748;48.742;2023-06-01T15:43:11;98754.94;;;20.67;49.02
65280;BME280;51878;55.748;48.742;2023-06-01T15:48:14;98803.66;;;20.61;51.02
65280;BME280;51878;55.748;48.742;2023-06-01T15:53:16;98752.97;;;20.09;51.21
65280;BME280;51878;55.748;48.742;2023-06-01T15:58:20;98770.13;;;19.84;52.72
65280;BME280;51878;55.748;48.742;2023-06-01T16:03:22;98763.97;;;19.39;56.13
65280;BME280;51878;55.748;48.742;2023-06-01T16:08:25;98830.94;;;19.55;57.69
65280;BME280;51878;55.748;48.742;2023-06-01T16:13:27;98766.84;;;18.95;58.84
65280;BME280;51878;55.748;48.742;2023-06-01T16:18:30;98762.06;;;18.64;59.51
65280;BME280;51878;55.748;48.742;2023-06-01T16:23:32;98828.31;;;18.89;61.10
65280;BME280;51878;55.748;48.742;2023-06-01T16:28:34;98780.28;;;18.48;63.88
65280;BME280;51878;55.748;48.742;2023-06-01T16:33:39;98836.34;;;18.74;65.43
65280;BME280;51878;55.748;48.742;2023-06-01T16:38:42;98825.34;;;18.52;65.38
65280;BME280;51878;55.748;48.742;2023-06-01T16:43:44;98839.75;;;18.42;66.46
65280;BME280;51878;55.748;48.742;2023-06-01T16:48:46;98847.53;;;18.11;69.57
65280;BME280;51878;55.748;48.742;2023-06-01T16:53:49;98790.78;;;17.44;72.00
65280;BME280;51878;55.748;48.742;2023-06-01T16:58:52;98855.38;;;17.57;74.77
65280;BME280;51878;55.748;48.742;2023-06-01T17:03:54;98850.88;;;17.34;75.17
65280;BME280;51878;55.748;48.742;2023-06-01T17:08:57;98661.69;;;16.09;75.15
65280;BME280;51878;55.748;48.742;2023-06-01T17:14:02;98814.59;;;16.86;75.61
65280;BME280;51878;55.748;48.742;2023-06-01T17:19:04;98842.38;;;16.78;78.29
65280;BME280;51878;55.748;48.742;2023-06-01T17:24:07;98826.59;;;16.45;80.88
65280;BME280;51878;55.748;48.742;2023-06-01T17:29:09;98847.06;;;16.30;82.55
65280;BME280;51878;55.748;48.742;2023-06-01T17:34:14;98859.31;;;16.28;83.79
65280;BME280;51878;55.748;48.742;2023-06-01T17:39:16;98716.41;;;15.38;82.71
65280;BME280;51878;55.748;48.742;2023-06-01T17:44:25;98844.69;;;16.22;80.58
65280;BME280;51878;55.748;48.742;2023-06-01T17:49:27;98853.84;;;16.28;80.45
65280;BME280;51878;55.748;48.742;2023-06-01T17:54:34;98845.88;;;16.26;80.14
65280;BME280;51878;55.748;48.742;2023-06-01T17:59:39;98834.00;;;16.21;79.91
65280;BME280;51878;55.748;48.742;2023-06-01T18:04:41;98870.97;;;16.35;79.68
65280;BME280;51878;55.748;48.742;2023-06-01T18:09:44;98830.06;;;16.17;79.64
65280;BME280;51878;55.748;48.742;2023-06-01T18:14:47;98818.88;;;16.06;80.22
65280;BME280;51878;55.748;48.742;2023-06-01T18:19:49;98793.59;;;15.87;80.32
65280;BME280;51878;55.748;48.742;2023-06-01T18:24:52;98836.97;;;16.07;80.69
65280;BME280;51878;55.748;48.742;2023-06-01T18:29:54;98698.91;;;15.16;81.01
65280;BME280;51878;55.748;48.742;2023-06-01T18:34:57;98821.97;;;15.98;81.63
65280;BME280;51878;55.748;48.742;2023-06-01T18:39:59;98791.31;;;15.73;82.82
65280;BME280;51878;55.748;48.742;2023-06-01T18:45:03;98835.41;;;16.00;83.29
65280;BME280;51878;55.748;48.742;2023-06-01T18:50:09;98843.03;;;15.98;84.07
65280;BME280;51878;55.748;48.742;2023-06-01T18:55:12;98851.00;;;15.99;85.56
65280;BME280;51878;55.748;48.742;2023-06-01T19:00:16;98703.38;;;14.98;87.06
65280;BME280;51878;55.748;48.742;2023-06-01T19:05:22;98779.59;;;15.42;88.20
65280;BME280;51878;55.748;48.742;2023-06-01T19:10:54;98850.72;;;15.77;90.17
65280;BME280;51878;55.748;48.742;2023-06-01T19:15:59;98841.03;;;15.63;91.52
65280;BME280;51878;55.748;48.742;2023-06-01T19:26:08;98759.28;;;14.96;94.34
65280;BME280;51878;55.748;48.742;2023-06-01T19:31:11;98695.03;;;14.51;94.12
65280;BME280;51878;55.748;48.742;2023-06-01T19:36:54;98828.19;;;15.52;92.38
65280;BME280;51878;55.748;48.742;2023-06-01T19:42:32;98824.16;;;15.54;91.55
65280;BME280;51878;55.748;48.742;2023-06-01T19:47:56;98759.47;;;15.13;91.71
65280;BME280;51878;55.748;48.742;2023-06-01T19:53:04;98800.47;;;15.36;91.51
65280;BME280;51878;55.748;48.742;2023-06-01T19:58:08;98798.31;;;15.26;92.28
65280;BME280;51878;55.748;48.742;2023-06-01T20:03:18;98825.81;;;15.43;92.19
65280;BME280;51878;55.748;48.742;2023-06-01T20:08:22;98803.91;;;15.32;92.20
65280;BME280;51878;55.748;48.742;2023-06-01T20:13:30;98744.56;;;14.97;91.90
65280;BME280;51878;55.748;48.742;2023-06-01T20:18:35;98804.50;;;15.34;92.71
65280;BME280;51878;55.748;48.742;2023-06-01T20:23:38;98770.13;;;15.02;92.84
65280;BME280;51878;55.748;48.742;2023-06-01T20:28:49;98695.72;;;14.46;93.44
65280;BME280;51878;55.748;48.742;2023-06-01T20:33:53;98789.22;;;15.02;94.61
65280;BME280;51878;55.748;48.742;2023-06-01T20:38:56;98741.38;;;14.70;95.52
65280;BME280;51878;55.748;48.742;2023-06-01T20:44:00;98794.59;;;15.09;96.22
65280;BME280;51878;55.748;48.742;2023-06-01T20:49:03;98796.94;;;15.05;96.66
65280;BME280;51878;55.748;48.742;2023-06-01T20:54:11;98677.94;;;14.25;97.21
65280;BME280;51878;55.748;48.742;2023-06-01T21:04:27;98783.91;;;14.77;98.90
65280;BME280;51878;55.748;48.742;2023-06-01T21:09:30;98708.41;;;14.22;100.00
65280;BME280;51878;55.748;48.742;2023-06-01T21:14:35;98758.75;;;14.57;100.00
65280;BME280;51878;55.748;48.742;2023-06-01T21:19:37;98763.16;;;14.58;100.00
65280;BME280;51878;55.748;48.742;2023-06-01T21:24:39;98760.66;;;14.56;100.00
65280;BME280;51878;55.748;48.742;2023-06-01T21:29:41;98706.13;;;14.19;100.00
65280;BME280;51878;55.748;48.742;2023-06-01T21:34:44;98766.78;;;14.52;100.00
65280;BME280;51878;55.748;48.742;2023-06-01T21:39:46;98782.31;;;14.51;100.00
65280;BME280;51878;55.748;48.742;2023-06-01T21:44:48;98774.31;;;14.38;100.00
65280;BME280;51878;55.748;48.742;2023-06-01T21:49:50;98773.09;;;14.34;100.00
65280;BME280;51878;55.748;48.742;2023-06-01T21:54:53;98761.50;;;14.20;100.00
65280;BME280;51878;55.748;48.742;2023-06-01T21:59:56;98776.78;;;14.21;100.00
65280;BME280;51878;55.748;48.742;2023-06-01T22:04:59;98724.63;;;13.80;100.00
65280;BME280;51878;55.748;48.742;2023-06-01T22:10:02;98759.59;;;14.02;100.00
65280;BME280;51878;55.748;48.742;2023-06-01T22:15:06;98766.56;;;13.98;100.00
65280;BME280;51878;55.748;48.742;2023-06-01T22:20:09;98791.03;;;14.04;100.00
65280;BME280;51878;55.748;48.742;2023-06-01T22:25:12;98725.78;;;13.66;100.00
65280;BME280;51878;55.748;48.742;2023-06-01T22:30:14;98772.53;;;13.88;100.00
65280;BME280;51878;55.748;48.742;2023-06-01T22:35:16;98627.00;;;12.90;100.00
65280;BME280;51878;55.748;48.742;2023-06-01T22:40:19;98730.31;;;13.54;100.00
65280;BME280;51878;55.748;48.742;2023-06-01T22:45:21;98754.41;;;13.75;100.00
65280;BME280;51878;55.748;48.742;2023-06-01T22:50:23;98702.16;;;13.41;100.00
65280;BME280;51878;55.748;48.742;2023-06-01T22:55:26;98764.63;;;13.80;100.00
65280;BME280;51878;55.748;48.742;2023-06-01T23:00:28;98713.59;;;13.50;100.00
65280;BME280;51878;55.748;48.742;2023-06-01T23:05:30;98730.91;;;13.56;100.00
65280;BME280;51878;55.748;48.742;2023-06-01T23:10:41;98777.00;;;13.82;100.00
65280;BME280;51878;55.748;48.742;2023-06-01T23:15:51;98746.00;;;13.58;100.00
65280;BME280;51878;55.748;48.742;2023-06-01T23:20:57;98753.50;;;13.63;100.00
65280;BME280;51878;55.748;48.742;2023-06-01T23:26:01;98816.06;;;13.95;100.00
65280;BME280;51878;55.748;48.742;2023-06-01T23:31:03;98706.84;;;13.28;100.00
65280;BME280;51878;55.748;48.742;2023-06-01T23:36:06;98681.50;;;13.02;100.00
65280;BME280;51878;55.748;48.742;2023-06-01T23:41:09;98802.47;;;13.70;100.00
65280;BME280;51878;55.748;48.742;2023-06-01T23:46:14;98832.38;;;13.76;100.00
65280;BME280;51878;55.748;48.742;2023-06-01T23:51:17;98716.88;;;13.02;100.00
65280;BME280;51878;55.748;48.742;2023-06-01T23:56:19;98760.88;;;13.31;100.00
